EGKKDTTJ

Guest
Details From EGKK - London Gatwick
To DTTJ - Djerba Zarzis
Flight Number -
Tags Generated
Created
Modified
Stats Distance 1,144 nm / 2,118 km
Max Altitude 0 ft / 0 m
Waypoints 7
Social Downloads 0
Likes 0
Share VATSIM

Download

Looking for another format? Having issues loading an existing format? Contact us
Advertisement - Login to hide

Notes

Generated

Route

EGKK GIPEX NOGAT BARIL GALIT JBA DTTJ

ID Type Via Altitude Latitude Longitude Leg Dist Tot Dist Heading (true) Name
O EGKK APT - 0 ft / 0 m 51.14691˚ -0.21257˚ - 0 nm - -
GIPEX FIX - 0 ft / 0 m 47.75750˚ 2.62333˚ 231 nm 231 nm 150° / 153° -
NOGAT FIX - 0 ft / 0 m 44.66453˚ 4.83639˚ 207 nm 438 nm 153° / 154° -
BARIL FIX - 0 ft / 0 m 40.86028˚ 7.18833˚ 250 nm 689 nm 155° / 156° -
GALIT FIX - 0 ft / 0 m 37.31194˚ 8.88361˚ 227 nm 917 nm 159° / 160° -
JBA VOR - 0 ft / 0 m 33.87722˚ 10.77141˚ 225 nm 1143 nm 155° / 156° DJERBA VOR-DME
O DTTJ APT - 0 ft / 0 m 33.87503˚ 10.76034˚ 0 nm 1143 nm 257° / 257° -

Altitude Profile

Advertisement - Login to hide

Weather


0- 5 10 15 20 25 30 35+ Temperature / ° C

Clouds and Precipitation
Forecast for 2018-05-21 18:00 UTC. Updated 2 hours ago

Ground ~20,000 ft ~40,000 ft Winds

EGKK

Details ICAO EGKK (LGW)
Name London Gatwick
Region United Kingdom
Timezone Europe/London (UTC+1.0)
Stats Elevation 196 ft / 60 m (AMSL)
Location 51.148753° -0.192472°
Runways 2
Magnetic Variation 0.369° W

METAR

EGKK 211850Z 02005KT 340V130 9999 -RA NSC 19/12 Q1014

Decode

TAF

TAF EGKK 211702Z 2118/2224 04009KT 9999 FEW045 PROB30 TEMPO 2118/2119 4000 +TSRA PROB30 TEMPO 2200/2208 8000

Decode

Departure Runways

ID Width Length Bearing (true) Bearing (mag) Surface Threshold Offset Overrun Length
08L 148 ft / 45 m 8,377 ft / 2,553 m 77.69° 78.06° Asphalt 1,053 ft / 321 m 0 ft / 0 m
08R 148 ft / 45 m 10,341 ft / 3,152 m 77.59° 77.96° Asphalt 1,289 ft / 393 m 0 ft / 0 m
26L 148 ft / 45 m 10,341 ft / 3,152 m 257.63° 258.00° Asphalt 879 ft / 268 m 600 ft / 183 m
26R 148 ft / 45 m 8,377 ft / 2,553 m 257.71° 258.08° Asphalt 1,365 ft / 416 m 0 ft / 0 m

DTTJ

Details ICAO DTTJ (DJE)
Name Djerba Zarzis
Region Tunisia
Timezone Africa/Tunis (UTC+1.0)
Stats Elevation 18 ft / 5 m (AMSL)
Location 33.875447° 10.777153°
Runways 1
Magnetic Variation 2.367° E

METAR

DTTJ 211900Z 06007KT 8000 SCT023 21/17 Q1010 NOSIG

Decode

TAF

TAF DTTJ 211700Z 2118/2218 04010KT 8000 SCT020 PROB30 TEMPO 2213/2218 -RA SCT020TCU

Decode

Destination Runways

ID Width Length Bearing (true) Bearing (mag) Surface Threshold Offset Overrun Length
09 148 ft / 45 m 10,191 ft / 3,106 m 88.28° 85.91° Asphalt 0 ft / 0 m 197 ft / 60 m
27 148 ft / 45 m 10,191 ft / 3,106 m 268.30° 265.93° Asphalt 0 ft / 0 m 197 ft / 60 m

Approach Navaids

Runway Type Ident Frequency Range Bearing (true) Bearing (mag) Slope Elevation
09 Localiser JAZ 109.50 MHz 18 nm / 33 km 88.31° 85.94° - 18 ft / 5 m (AMSL)
09 Glidescope JAZ 109.50 MHz 10 nm / 19 km 88.29° 85.92° 3.00° 18 ft / 5 m (AMSL)